createdAt,value
2022-11-13T00:00:56.735Z,102642.58
2022-11-13T00:03:47.905Z,102635.56
2022-11-13T00:06:39.520Z,102636.79
2022-11-13T00:09:30.744Z,102633.54
2022-11-13T00:12:22.159Z,102633.17
2022-11-13T00:15:13.846Z,102627.48
2022-11-13T00:18:07.625Z,102631.31
2022-11-13T00:20:59.628Z,102628.49
2022-11-13T00:23:50.918Z,102629.39
2022-11-13T00:30:33.578Z,102625.07
2022-11-13T00:33:45.528Z,102625.17
2022-11-13T00:39:59.510Z,102629.62
2022-11-13T00:42:50.459Z,102627.27
2022-11-13T00:46:09.124Z,102622.94
2022-11-13T00:48:59.940Z,102623.11
2022-11-13T00:51:59.949Z,102627.53
2022-11-13T00:54:51.059Z,102624.84
2022-11-13T00:57:42.134Z,102617.91
2022-11-13T01:00:34.816Z,102626.08
2022-11-13T01:03:27.638Z,102619.53
2022-11-13T01:06:47.300Z,102626.96
2022-11-13T01:09:38.554Z,102627.96
2022-11-13T01:12:32.080Z,102630.70
2022-11-13T01:15:23.214Z,102631.02
2022-11-13T01:18:15.618Z,102628.98
2022-11-13T01:21:08.722Z,102631.31
2022-11-13T01:23:59.878Z,102630.10
2022-11-13T01:26:50.603Z,102628.34
2022-11-13T01:29:41.714Z,102627.54
2022-11-13T01:32:35.112Z,102624.91
2022-11-13T01:35:28.507Z,102620.34
2022-11-13T01:38:19.397Z,102615.08
2022-11-13T01:41:12.463Z,102609.39
2022-11-13T01:44:04.156Z,102605.73
2022-11-13T01:46:56.545Z,102601.66
2022-11-13T01:49:50.509Z,102603.75
2022-11-13T01:52:43.949Z,102605.70
2022-11-13T01:55:34.762Z,102603.91
2022-11-13T01:58:26.398Z,102607.94
2022-11-13T02:01:18.046Z,102611.55
2022-11-13T02:04:12.582Z,102609.26
2022-11-13T02:07:07.242Z,102604.91
2022-11-13T02:10:00.013Z,102602.16
2022-11-13T02:12:53.141Z,102597.23
2022-11-13T02:15:46.896Z,102598.91
2022-11-13T02:18:40.575Z,102595.36
2022-11-13T02:21:38.909Z,102595.11
2022-11-13T02:24:36.841Z,102602.01
2022-11-13T02:27:31.870Z,102605.05
2022-11-13T02:30:27.403Z,102597.98
2022-11-13T02:33:27.194Z,102595.33
2022-11-13T02:36:19.654Z,102593.83
2022-11-13T02:39:13.417Z,102600.13
2022-11-13T02:42:04.669Z,102600.05
2022-11-13T02:44:55.618Z,102598.16
2022-11-13T02:47:46.788Z,102594.30
2022-11-13T02:50:39.478Z,102588.75
2022-11-13T02:53:30.362Z,102588.46
2022-11-13T02:56:21.278Z,102587.17
2022-11-13T02:59:12.371Z,102591.89
2022-11-13T03:02:03.464Z,102585.35
2022-11-13T03:08:04.973Z,102582.48
2022-11-13T03:10:56.185Z,102583.98
2022-11-13T03:13:46.910Z,102582.24
2022-11-13T03:16:38.386Z,102583.33
2022-11-13T03:19:29.762Z,102577.10
2022-11-13T03:22:20.728Z,102581.01
2022-11-13T03:25:12.017Z,102573.84
2022-11-13T03:28:02.958Z,102573.25
2022-11-13T03:30:53.684Z,102569.87
2022-11-13T03:33:44.897Z,102573.08
2022-11-13T03:36:36.332Z,102574.79
2022-11-13T03:39:27.431Z,102571.68
2022-11-13T03:42:18.232Z,102575.06
2022-11-13T03:45:09.889Z,102571.69
2022-11-13T03:48:00.713Z,102566.91
2022-11-13T03:50:56.175Z,102566.80
2022-11-13T03:53:46.968Z,102565.13
2022-11-13T03:56:37.535Z,102566.80
2022-11-13T03:59:28.456Z,102569.58
2022-11-13T04:02:23.132Z,102568.50
2022-11-13T04:05:22.498Z,102569.98
2022-11-13T04:08:13.540Z,102566.88
2022-11-13T04:11:10.855Z,102567.91
2022-11-13T04:14:01.991Z,102570.27
2022-11-13T04:16:53.055Z,102575.29
2022-11-13T04:19:44.219Z,102574.67
2022-11-13T04:22:39.454Z,102579.06
2022-11-13T04:25:30.043Z,102578.53
2022-11-13T04:28:23.616Z,102577.06
2022-11-13T04:31:14.476Z,102570.09
2022-11-13T04:34:05.464Z,102578.35
2022-11-13T04:36:56.640Z,102575.89
2022-11-13T04:39:47.951Z,102579.82
2022-11-13T04:42:50.852Z,102575.88
2022-11-13T04:45:41.849Z,102578.88
2022-11-13T04:48:32.451Z,102578.52
2022-11-13T04:51:24.538Z,102582.62
2022-11-13T04:54:15.654Z,102580.45
2022-11-13T04:57:06.603Z,102586.30
2022-11-13T04:59:57.618Z,102587.13
2022-11-13T05:02:50.183Z,102586.75
2022-11-13T05:05:41.010Z,102586.29
2022-11-13T05:08:31.625Z,102588.86
2022-11-13T05:11:24.924Z,102588.80
2022-11-13T05:14:16.272Z,102585.86
2022-11-13T05:17:08.693Z,102587.86
2022-11-13T05:20:02.070Z,102591.73
2022-11-13T05:22:54.836Z,102591.48
2022-11-13T05:25:45.421Z,102594.07
2022-11-13T05:28:36.625Z,102598.60
2022-11-13T05:31:28.591Z,102595.36
2022-11-13T05:34:19.421Z,102596.27
2022-11-13T05:37:10.152Z,102594.27
2022-11-13T05:40:00.800Z,102592.70
2022-11-13T05:42:55.594Z,102593.48
2022-11-13T05:45:49.246Z,102590.62
2022-11-13T05:48:40.287Z,102591.14
2022-11-13T05:51:33.546Z,102590.05
2022-11-13T05:54:24.061Z,102592.71
2022-11-13T05:57:14.908Z,102589.45
2022-11-13T06:00:06.463Z,102587.85
2022-11-13T06:02:57.459Z,102590.07
2022-11-13T06:05:48.082Z,102590.17
2022-11-13T06:08:46.880Z,102591.70
2022-11-13T06:11:39.813Z,102592.31
2022-11-13T06:14:30.706Z,102588.60
2022-11-13T06:17:37.623Z,102588.30
2022-11-13T06:20:28.147Z,102588.38
2022-11-13T06:23:18.888Z,102594.77
2022-11-13T06:29:17.055Z,102592.12
2022-11-13T06:32:10.371Z,102590.95
2022-11-13T06:35:01.341Z,102578.27
2022-11-13T06:37:52.254Z,102590.49
2022-11-13T06:40:45.449Z,102593.42
2022-11-13T06:43:36.327Z,102589.25
2022-11-13T06:46:30.164Z,102585.34
2022-11-13T06:49:20.855Z,102590.95
2022-11-13T06:52:11.516Z,102589.40
2022-11-13T06:55:02.549Z,102588.35
2022-11-13T06:57:55.112Z,102590.96
2022-11-13T07:00:46.899Z,102592.23
2022-11-13T07:03:37.927Z,102593.05
2022-11-13T07:06:28.517Z,102593.71
2022-11-13T07:09:19.468Z,102590.98
2022-11-13T07:12:10.934Z,102595.06
2022-11-13T07:15:01.877Z,102595.13
2022-11-13T07:17:54.797Z,102595.26
2022-11-13T07:20:45.753Z,102594.33
2022-11-13T07:23:40.869Z,102592.63
2022-11-13T07:26:31.957Z,102595.16
2022-11-13T07:29:23.725Z,102590.84
2022-11-13T07:32:20.239Z,102589.80
2022-11-13T07:38:46.576Z,102586.77
2022-11-13T07:41:40.017Z,102587.30
2022-11-13T07:44:53.506Z,102593.05
2022-11-13T07:47:50.197Z,102595.36
2022-11-13T07:50:41.384Z,102591.85
2022-11-13T07:53:35.776Z,102597.65
2022-11-13T07:56:26.642Z,102598.92
2022-11-13T07:59:17.805Z,102598.98
2022-11-13T08:02:10.438Z,102604.11
2022-11-13T08:05:01.495Z,102605.42
2022-11-13T08:07:56.560Z,102602.98
2022-11-13T08:10:47.697Z,102604.53
2022-11-13T08:13:55.190Z,102607.66
2022-11-13T08:16:46.504Z,102609.29
2022-11-13T08:19:37.161Z,102610.90
2022-11-13T08:22:27.909Z,102613.53
2022-11-13T08:25:19.115Z,102620.03
2022-11-13T08:28:23.143Z,102619.86
2022-11-13T08:31:21.827Z,102615.92
2022-11-13T08:34:12.753Z,102620.34
2022-11-13T08:37:11.587Z,102621.38
2022-11-13T08:40:02.422Z,102626.02
2022-11-13T08:42:53.369Z,102625.38
2022-11-13T08:45:46.346Z,102626.15
2022-11-13T08:48:37.824Z,102627.48
2022-11-13T08:51:30.129Z,102619.69
2022-11-13T08:54:32.747Z,102621.02
2022-11-13T08:57:31.525Z,102624.35
2022-11-13T09:00:23.443Z,102627.96
2022-11-13T09:03:15.432Z,102625.38
2022-11-13T09:06:12.118Z,102626.24
2022-11-13T09:09:03.314Z,102631.20
2022-11-13T09:11:54.728Z,102633.72
2022-11-13T09:14:45.594Z,102624.95
2022-11-13T09:18:04.158Z,102628.03
2022-11-13T09:20:55.937Z,102629.31
2022-11-13T09:23:50.434Z,102630.19
2022-11-13T09:26:41.071Z,102629.64
2022-11-13T09:29:55.209Z,102626.98
2022-11-13T09:32:46.459Z,102622.23
2022-11-13T09:36:11.055Z,102621.98
2022-11-13T09:39:01.853Z,102618.10
2022-11-13T09:41:57.648Z,102620.59
2022-11-13T09:44:52.239Z,102618.24
2022-11-13T09:48:29.873Z,102620.70
2022-11-13T09:51:46.391Z,102621.85
2022-11-13T09:54:37.321Z,102620.73
2022-11-13T09:57:36.334Z,102625.36
2022-11-13T10:00:30.375Z,102617.00
2022-11-13T10:04:17.961Z,102614.93
2022-11-13T10:07:28.934Z,102609.00
2022-11-13T10:10:38.354Z,102602.93
2022-11-13T10:16:42.415Z,102598.41
2022-11-13T10:19:39.419Z,102597.52
2022-11-13T10:22:38.857Z,102591.64
2022-11-13T10:26:02.352Z,102582.15
2022-11-13T10:29:01.836Z,102589.25
2022-11-13T10:32:01.639Z,102591.09
2022-11-13T10:35:12.432Z,102583.83
2022-11-13T10:38:08.771Z,102581.55
2022-11-13T10:41:14.120Z,102575.55
2022-11-13T10:44:24.645Z,102573.54
2022-11-13T10:47:42.456Z,102571.80
2022-11-13T10:50:33.758Z,102568.02
2022-11-13T10:53:26.783Z,102567.61
2022-11-13T10:56:28.257Z,102562.34
2022-11-13T11:00:14.970Z,102566.61
2022-11-13T11:02:56.369Z,102562.20
2022-11-13T11:07:12.659Z,102562.42
2022-11-13T11:09:50.214Z,102557.58
2022-11-13T11:12:45.486Z,102558.71
2022-11-13T11:15:43.055Z,102557.55
2022-11-13T11:18:57.193Z,102556.96
2022-11-13T11:21:49.911Z,102557.24
2022-11-13T11:24:46.710Z,102553.72
2022-11-13T11:27:44.712Z,102550.55
2022-11-13T11:31:09.174Z,102541.77
2022-11-13T11:34:11.463Z,102540.27
2022-11-13T11:37:07.468Z,102541.34
2022-11-13T11:40:08.325Z,102540.19
2022-11-13T11:43:08.156Z,102539.41
2022-11-13T11:45:59.473Z,102535.27
2022-11-13T11:48:51.175Z,102532.92
2022-11-13T11:52:01.148Z,102534.65
2022-11-13T11:55:02.149Z,102533.10
2022-11-13T11:58:19.900Z,102530.88
2022-11-13T12:05:02.703Z,102527.55
2022-11-13T12:08:20.764Z,102521.48
2022-11-13T12:11:24.391Z,102520.33
2022-11-13T12:14:39.906Z,102521.43
2022-11-13T12:18:02.781Z,102518.23
2022-11-13T12:21:03.885Z,102521.09
2022-11-13T12:24:17.632Z,102518.80
2022-11-13T12:27:36.054Z,102516.44
2022-11-13T12:30:35.829Z,102504.50
2022-11-13T12:33:35.601Z,102500.10
2022-11-13T12:36:27.807Z,102499.41
2022-11-13T12:39:35.312Z,102501.89
2022-11-13T12:42:38.000Z,102504.27
2022-11-13T12:45:49.805Z,102504.88
2022-11-13T12:48:42.627Z,102504.21
2022-11-13T12:55:26.126Z,102499.77
2022-11-13T12:58:24.519Z,102501.36
2022-11-13T13:01:45.559Z,102494.98
2022-11-13T13:05:12.409Z,102495.19
2022-11-13T13:09:15.033Z,102491.63
2022-11-13T13:12:15.907Z,102498.10
2022-11-13T13:15:32.601Z,102496.14
2022-11-13T13:18:50.477Z,102495.33
2022-11-13T13:21:45.685Z,102497.58
2022-11-13T13:24:39.034Z,102494.54
2022-11-13T13:27:31.705Z,102494.67
2022-11-13T13:30:26.658Z,102491.60
2022-11-13T13:33:32.774Z,102490.91
2022-11-13T13:36:31.942Z,102490.20
2022-11-13T13:39:50.806Z,102489.29
2022-11-13T13:43:17.057Z,102484.15
2022-11-13T13:46:15.303Z,102476.73
2022-11-13T13:49:11.021Z,102477.83
2022-11-13T13:52:01.883Z,102472.03
2022-11-13T13:55:19.525Z,102473.76
2022-11-13T13:58:21.218Z,102471.61
2022-11-13T14:01:30.146Z,102472.42
2022-11-13T14:04:50.096Z,102459.58
2022-11-13T14:07:52.026Z,102453.94
2022-11-13T14:10:56.428Z,102447.77
2022-11-13T14:13:51.563Z,102443.38
2022-11-13T14:16:53.247Z,102451.80
2022-11-13T14:19:52.552Z,102448.52
2022-11-13T14:22:55.297Z,102445.69
2022-11-13T14:25:53.426Z,102446.75
2022-11-13T14:28:56.624Z,102440.27
2022-11-13T14:31:48.612Z,102439.75
2022-11-13T14:35:18.496Z,102443.44
2022-11-13T14:38:31.196Z,102441.62
2022-11-13T14:41:38.428Z,102435.33
2022-11-13T14:44:32.351Z,102435.52
2022-11-13T14:47:29.363Z,102433.52
2022-11-13T14:50:28.864Z,102426.88
2022-11-13T14:53:29.908Z,102433.64
2022-11-13T14:56:50.272Z,102433.60
2022-11-13T14:59:44.382Z,102430.08
2022-11-13T15:02:39.413Z,102424.18
2022-11-13T15:05:57.947Z,102419.67
2022-11-13T15:08:51.334Z,102419.60
2022-11-13T15:11:53.577Z,102420.14
2022-11-13T15:14:44.858Z,102422.23
2022-11-13T15:17:37.591Z,102418.81
2022-11-13T15:20:33.060Z,102416.95
2022-11-13T15:23:29.420Z,102425.38
2022-11-13T15:26:20.928Z,102428.15
2022-11-13T15:29:11.572Z,102433.21
2022-11-13T15:32:02.544Z,102435.38
2022-11-13T15:34:55.718Z,102435.27
2022-11-13T15:37:47.797Z,102431.59
2022-11-13T15:40:43.577Z,102432.44
2022-11-13T15:43:34.803Z,102430.05
2022-11-13T15:46:27.057Z,102430.48
2022-11-13T15:49:18.308Z,102428.14
2022-11-13T15:52:10.668Z,102426.42
2022-11-13T15:55:02.652Z,102423.22
2022-11-13T15:58:20.069Z,102417.02
2022-11-13T16:01:14.219Z,102409.95
2022-11-13T16:04:06.247Z,102411.93
2022-11-13T16:06:57.170Z,102410.70
2022-11-13T16:09:48.844Z,102406.33
2022-11-13T16:12:46.168Z,102412.16
2022-11-13T16:15:49.135Z,102413.04
2022-11-13T16:18:41.176Z,102411.81
2022-11-13T16:21:57.343Z,102412.02
2022-11-13T16:24:52.835Z,102414.59
2022-11-13T16:27:43.972Z,102411.60
2022-11-13T16:30:34.797Z,102411.02
2022-11-13T16:33:28.750Z,102408.29
2022-11-13T16:36:24.161Z,102409.77
2022-11-13T16:39:17.991Z,102404.31
2022-11-13T16:42:10.894Z,102405.77
2022-11-13T16:45:46.390Z,102406.67
2022-11-13T16:48:44.383Z,102399.78
2022-11-13T16:51:35.470Z,102396.27
2022-11-13T16:54:32.117Z,102391.39
2022-11-13T16:57:23.681Z,102385.20
2022-11-13T17:00:19.205Z,102378.63
2022-11-13T17:03:11.432Z,102379.77
2022-11-13T17:06:02.532Z,102375.25
2022-11-13T17:09:08.307Z,102378.56
2022-11-13T17:12:00.790Z,102376.05
2022-11-13T17:14:51.655Z,102376.84
2022-11-13T17:17:43.246Z,102372.55
2022-11-13T17:20:37.152Z,102374.92
2022-11-13T17:23:45.869Z,102376.31
2022-11-13T17:26:36.737Z,102379.61
2022-11-13T17:29:27.962Z,102381.94
2022-11-13T17:32:18.789Z,102378.97
2022-11-13T17:35:11.384Z,102377.92
2022-11-13T17:38:03.282Z,102376.92
2022-11-13T17:41:09.872Z,102383.44
2022-11-13T17:44:01.747Z,102386.59
2022-11-13T17:46:53.140Z,102389.52
2022-11-13T17:49:43.869Z,102389.96
2022-11-13T17:52:34.908Z,102390.09
2022-11-13T17:55:28.222Z,102395.09
2022-11-13T17:58:21.491Z,102392.74
2022-11-13T18:01:14.992Z,102394.65
2022-11-13T18:04:06.366Z,102398.38
2022-11-13T18:06:57.378Z,102398.91
2022-11-13T18:09:48.565Z,102402.16
2022-11-13T18:12:41.228Z,102400.88
2022-11-13T18:15:32.185Z,102401.17
2022-11-13T18:18:24.061Z,102405.83
2022-11-13T18:21:24.903Z,102407.95
2022-11-13T18:24:18.987Z,102406.66
2022-11-13T18:27:11.219Z,102411.38
2022-11-13T18:30:02.300Z,102411.08
2022-11-13T18:32:52.939Z,102411.67
2022-11-13T18:35:43.934Z,102410.21
2022-11-13T18:38:35.266Z,102416.94
2022-11-13T18:41:26.409Z,102412.16
2022-11-13T18:44:17.460Z,102414.58
2022-11-13T18:47:11.472Z,102410.45
2022-11-13T18:50:02.441Z,102413.65
2022-11-13T18:52:55.924Z,102413.96
2022-11-13T18:55:47.440Z,102421.77
2022-11-13T18:58:41.119Z,102415.83
2022-11-13T19:01:34.905Z,102413.37
2022-11-13T19:04:26.071Z,102416.15
2022-11-13T19:07:17.109Z,102416.05
2022-11-13T19:10:09.492Z,102417.10
2022-11-13T19:13:01.214Z,102415.16
2022-11-13T19:15:52.968Z,102416.07
2022-11-13T19:18:45.729Z,102413.26
2022-11-13T19:21:38.057Z,102413.30
2022-11-13T19:25:10.848Z,102416.88
2022-11-13T19:28:02.848Z,102414.19
2022-11-13T19:30:55.533Z,102419.52
2022-11-13T19:33:49.189Z,102421.96
2022-11-13T19:36:41.488Z,102420.42
2022-11-13T19:39:38.168Z,102414.12
2022-11-13T19:42:29.339Z,102413.54
2022-11-13T19:45:20.592Z,102410.64
2022-11-13T19:48:17.666Z,102411.95
2022-11-13T19:51:12.367Z,102405.83
2022-11-13T19:54:03.571Z,102407.71
2022-11-13T19:56:54.971Z,102403.89
2022-11-13T19:59:46.064Z,102403.16
2022-11-13T20:02:37.434Z,102403.45
2022-11-13T20:05:29.061Z,102407.96
2022-11-13T20:08:36.433Z,102404.24
2022-11-13T20:11:31.109Z,102401.88
2022-11-13T20:14:21.916Z,102406.18
2022-11-13T20:20:58.286Z,102411.67
2022-11-13T20:24:02.444Z,102410.75
2022-11-13T20:27:26.850Z,102414.71
2022-11-13T20:30:37.803Z,102405.51
2022-11-13T20:37:20.964Z,102396.29
2022-11-13T20:40:17.972Z,102396.04
2022-11-13T20:44:20.966Z,102396.60
2022-11-13T20:47:11.777Z,102393.64
2022-11-13T20:50:02.938Z,102390.52
2022-11-13T20:52:53.845Z,102383.44
2022-11-13T20:55:55.821Z,102385.89
2022-11-13T20:59:14.285Z,102385.27
2022-11-13T21:02:05.728Z,102379.48
2022-11-13T21:05:15.492Z,102383.38
2022-11-13T21:08:28.402Z,102380.91
2022-11-13T21:11:52.628Z,102373.46
2022-11-13T21:14:44.424Z,102372.60
2022-11-13T21:17:36.826Z,102373.66
2022-11-13T21:20:27.786Z,102369.09
2022-11-13T21:23:18.403Z,102367.98
2022-11-13T21:26:10.273Z,102371.09
2022-11-13T21:29:01.252Z,102364.48
2022-11-13T21:31:52.049Z,102365.84
2022-11-13T21:34:42.763Z,102365.41
2022-11-13T21:37:34.822Z,102366.24
2022-11-13T21:40:25.509Z,102365.02
2022-11-13T21:43:16.720Z,102364.25
2022-11-13T21:46:08.904Z,102362.47
2022-11-13T21:49:02.510Z,102362.04
2022-11-13T21:51:53.061Z,102360.45
2022-11-13T21:54:43.810Z,102361.02
2022-11-13T21:57:34.965Z,102363.11
2022-11-13T22:00:26.038Z,102363.27
2022-11-13T22:03:16.808Z,102367.04
2022-11-13T22:06:19.962Z,102365.86
2022-11-13T22:09:21.365Z,102363.23
2022-11-13T22:12:13.049Z,102359.43
2022-11-13T22:15:04.259Z,102358.60
2022-11-13T22:17:55.137Z,102353.11
2022-11-13T22:20:48.826Z,102354.26
2022-11-13T22:23:39.596Z,102351.59
2022-11-13T22:26:31.962Z,102352.98
2022-11-13T22:29:22.857Z,102346.71
2022-11-13T22:32:16.002Z,102348.69
2022-11-13T22:35:08.216Z,102349.42
2022-11-13T22:37:59.106Z,102347.55
2022-11-13T22:40:50.227Z,102344.13
2022-11-13T22:43:42.992Z,102342.03
2022-11-13T22:46:35.409Z,102339.16
2022-11-13T22:49:54.098Z,102339.66
2022-11-13T22:52:44.984Z,102340.95
2022-11-13T22:55:35.791Z,102332.32
2022-11-13T22:58:28.497Z,102338.05
2022-11-13T23:01:21.725Z,102335.94
2022-11-13T23:04:21.213Z,102335.36
2022-11-13T23:07:15.928Z,102333.88
2022-11-13T23:10:14.622Z,102337.08
2022-11-13T23:13:05.455Z,102336.34
2022-11-13T23:15:56.859Z,102334.33
2022-11-13T23:19:15.164Z,102338.95
2022-11-13T23:22:06.093Z,102331.08
2022-11-13T23:25:01.033Z,102326.52
2022-11-13T23:28:01.266Z,102319.30
2022-11-13T23:30:52.159Z,102319.42
2022-11-13T23:33:45.536Z,102318.08
2022-11-13T23:36:36.940Z,102317.88
2022-11-13T23:39:27.641Z,102313.34
2022-11-13T23:42:39.303Z,102309.94
2022-11-13T23:45:29.617Z,102311.61
2022-11-13T23:48:20.890Z,102308.55
2022-11-13T23:51:12.042Z,102304.49
2022-11-13T23:54:03.090Z,102298.17
2022-11-13T23:56:54.004Z,102291.08
2022-11-13T23:59:45.282Z,102299.59
